Flight Track Log - Related Links

Times and Time Zones

All times are in EDT time to prevent confusion due to time zone crossing. See the N706CJ flight status page for this flight to view local times or setup timezone preferences in your user account.

Time Position Orientation Groundspeed Altitude Reporting Facility
EDT Latitude Longitude Course Direction KTS MPH feet Rate Location/Type
Sun 09:01:09 AM 26.4575 -80.2122 336° Northwest 279 321 6,500  Level Miami Center
Sun 09:02:09 AM 26.4831 -80.2825 292° West 266 306 9,100 3,100 Climbing Miami Center
Sun 09:03:09 AM 26.5208 -80.3672 297° West 272 313 12,700 3,300 Climbing Miami Center
Sun 09:04:09 AM 26.5931 -80.4019 337° Northwest 291 335 15,700 2,700 Climbing Miami Center
Sun 09:05:00 AM 26.8530 -80.5365 342° North  Level FlightAware Approximate
Sun 09:05:09 AM 26.6900 -80.4489 337° Northwest 329 379 18,100  Level Miami Center
Sun 09:06:00 AM 26.9560 -80.5780 336° Northwest  Level FlightAware Approximate
Sun 09:06:09 AM 26.7725 -80.4864 338° Northwest 353 406 20,400  Level Miami Center
Sun 09:07:09 AM 26.8633 -80.5333 335° Northwest 353 406 22,600 2,100 Climbing Miami Center
Sun 09:08:09 AM 26.9625 -80.5739 340° North 363 418 24,600 2,000 Climbing Miami Center
Sun 09:09:09 AM 27.0658 -80.6122 342° North 376 433 26,600 2,000 Climbing Miami Center
Sun 09:10:09 AM 27.1781 -80.6322 351° North 386 444 28,600 1,950 Climbing Miami Center
Sun 09:11:09 AM 27.2928 -80.6383 357° North 404 465 30,500 1,950 Climbing Miami Center
Sun 09:12:09 AM 27.4053 -80.6489 355° North 409 471 32,500 1,900 Climbing Miami Center
Sun 09:13:09 AM 27.5200 -80.6550 357° North 404 465 34,300 1,650 Climbing Miami Center
Sun 09:14:09 AM 27.6211 -80.7006 338° Northwest 394 453 35,800 1,450 Climbing Miami Center
Sun 09:15:09 AM 27.7242 -80.7486 338° Northwest 394 453 37,200 1,500 Climbing Miami Center
Sun 09:16:09 AM 27.8294 -80.7944 339° North 394 453 38,800 1,500 Climbing Miami Center
Sun 09:17:09 AM 27.9325 -80.8403 339° North 399 459 40,200 1,100 Climbing Miami Center
Sun 09:18:09 AM 28.0356 -80.8886 338° Northwest 404 465 41,000 400 Climbing Miami Center
Sun 09:19:09 AM 28.1406 -80.9347 339° North 399 459 41,000  Level Miami Center
Sun 09:20:09 AM 28.2414 -80.9808 338° Northwest 399 459 41,000  Level Miami Center
Sun 09:21:09 AM 28.3467 -81.0269 339° North 399 459 41,000  Level Miami Center
Sun 09:22:09 AM 28.4536 -81.0783 337° Northwest 399 459 41,000  Level Miami Center
Sun 09:23:09 AM 28.5564 -81.1247 338° Northwest 399 459 41,000  Level Miami Center
Sun 09:24:09 AM 28.6697 -81.1786 337° Northwest 399 459 41,000  Level Miami Center
Sun 09:24:27 AM 28.6917 -81.1886 338° Northwest 403 464 41,000  Level Jacksonville Center
Sun 09:25:27 AM 28.7967 -81.2342 339° North 403 464 41,000  Level Jacksonville Center
Sun 09:26:28 AM 28.9017 -81.2822 338° Northwest 403 464 41,000  Level Jacksonville Center
Sun 09:27:27 AM 29.0044 -81.3281 339° North 398 458 41,000  Level Jacksonville Center
Sun 09:28:27 AM 29.1072 -81.3764 338° Northwest 398 458 41,000  Level Jacksonville Center
Sun 09:29:27 AM 29.2081 -81.4272 336° Northwest 398 458 41,000  Level Jacksonville Center
Sun 09:30:27 AM 29.3211 -81.4492 350° North 397 457 41,000  Level Jacksonville Center
Sun 09:31:27 AM 29.4381 -81.4667 353° North 407 468 41,000  Level Jacksonville Center
Sun 09:32:27 AM 29.5553 -81.4839 353° North 420 483 41,000  Level Jacksonville Center
Sun 09:33:27 AM 29.6744 -81.5014 353° North 425 489 41,000  Level Jacksonville Center
Sun 09:34:27 AM 29.7914 -81.5214 352° North 425 489 41,000  Level Jacksonville Center
Sun 09:35:27 AM 29.9086 -81.5411 352° North 425 489 41,000  Level Jacksonville Center
Sun 09:36:27 AM 30.0256 -81.5564 354° North 425 489 41,000  Level Jacksonville Center
Sun 09:37:27 AM 30.1406 -81.5739 353° North 425 489 41,000  Level Jacksonville Center
Sun 09:38:27 AM 30.2600 -81.5917 353° North 425 489 41,000  Level Jacksonville Center
Sun 09:39:27 AM 30.3917 -81.6139 352° North 431 496 41,000  Level Jacksonville Center
Sun 09:40:27 AM 30.5128 -81.6314 353° North 431 496 41,000  Level Jacksonville Center
Sun 09:41:27 AM 30.6281 -81.6517 351° North 426 490 41,000  Level Jacksonville Center
Sun 09:42:27 AM 30.7450 -81.6719 352° North 426 490 41,000  Level Jacksonville Center
Sun 09:43:27 AM 30.8600 -81.6922 351° North 426 490 41,000  Level Jacksonville Center
Sun 09:44:27 AM 30.9772 -81.7100 353° North 426 490 41,000  Level Jacksonville Center
Sun 09:45:27 AM 31.0942 -81.7281 352° North 426 490 41,000  Level Jacksonville Center
Sun 09:46:28 AM 31.2114 -81.7508 351° North 425 489 41,000  Level Jacksonville Center
Sun 09:47:27 AM 31.3286 -81.7689 353° North 419 482 41,000  Level Jacksonville Center
Sun 09:48:27 AM 31.4308 -81.7847 352° North 419 482 41,000  Level Jacksonville Center
Sun 09:49:27 AM 31.5606 -81.8050 352° North 419 482 41,000  Level Jacksonville Center
Sun 09:50:27 AM 31.6778 -81.8233 352° North 424 488 41,000  Level Jacksonville Center
Sun 09:51:27 AM 31.7842 -81.8417 352° North 430 495 41,000  Level Jacksonville Center
Sun 09:52:27 AM 31.9139 -81.8622 352° North 430 495 41,000  Level Jacksonville Center
Sun 09:53:27 AM 32.0311 -81.8831 351° North 430 495 41,000  Level Jacksonville Center
Sun 09:54:58 AM 32.2167 -81.9128 352° North 471 542 41,000  Level Atlanta Center
Sun 09:55:58 AM 32.3317 -81.9297 353° North 440 506 41,000  Level Atlanta Center
Sun 09:56:58 AM 32.4553 -81.9514 352° North 435 501 41,000  Level Atlanta Center
Sun 09:57:58 AM 32.5725 -81.9758 350° North 430 495 41,000  Level Atlanta Center
Sun 09:58:58 AM 32.6939 -81.9928 353° North 430 495 41,000  Level Atlanta Center
Sun 09:59:58 AM 32.8133 -82.0122 352° North 430 495 41,000  Level Atlanta Center
Sun 10:00:58 AM 32.9325 -82.0292 353° North 430 495 41,000  Level Atlanta Center
Sun 10:01:58 AM 33.0497 -82.0511 351° North 430 495 41,000  Level Atlanta Center
Sun 10:02:58 AM 33.1669 -82.0708 352° North 430 495 41,000  Level Atlanta Center
Sun 10:03:58 AM 33.2861 -82.0906 352° North 430 495 41,000  Level Atlanta Center
Sun 10:04:58 AM 33.4033 -82.1103 352° North 425 489 41,000  Level Atlanta Center
Sun 10:05:58 AM 33.5206 -82.1300 352° North 425 489 41,000  Level Atlanta Center
Sun 10:06:58 AM 33.6253 -82.1478 352° North 425 489 41,000  Level Atlanta Center
Sun 10:07:58 AM 33.7442 -82.1500 359° North 425 489 41,000  Level Atlanta Center
Sun 10:08:58 AM 33.8650 -82.1350 North 425 489 41,000  Level Atlanta Center
Sun 10:09:58 AM 33.9878 -82.1122 North 432 497 41,000  Level Atlanta Center
Sun 10:10:58 AM 34.1064 -82.0919 North 432 497 41,000  Level Atlanta Center
Sun 10:11:58 AM 34.2272 -82.0717 North 432 497 41,000  Level Atlanta Center
Sun 10:12:58 AM 34.3458 -82.0511 North 432 497 41,000  Level Atlanta Center
Sun 10:13:58 AM 34.4667 -82.0308 North 432 497 41,000  Level Atlanta Center
Sun 10:14:58 AM 34.5872 -82.0078 North 427 491 41,000  Level Atlanta Center
Sun 10:15:58 AM 34.7058 -81.9869 North 427 491 41,000  Level Atlanta Center
Sun 10:16:58 AM 34.8389 -81.9636 North 432 497 41,000  Level Atlanta Center
Sun 10:17:58 AM 34.9533 -81.9456 North 427 491 41,000  Level Atlanta Center
Sun 10:18:58 AM 35.0761 -81.9272 North 427 491 41,000  Level Atlanta Center
Sun 10:19:58 AM 35.1953 -81.9242 North 427 491 41,000  Level Atlanta Center
Sun 10:20:58 AM 35.3161 -81.9186 North 421 484 41,000  Level Atlanta Center
Sun 10:21:58 AM 35.4225 -81.9133 North 421 484 41,000  Level Atlanta Center
Sun 10:22:58 AM 35.5433 -81.9100 North 421 484 41,000  Level Atlanta Center
Sun 10:23:58 AM 35.6664 -81.9044 North 426 490 41,000  Level Atlanta Center
Sun 10:24:58 AM 35.7850 -81.8961 North 432 497 41,000  Level Atlanta Center
Sun 10:25:58 AM 35.9186 -81.8900 North 432 497 41,000  Level Atlanta Center
Sun 10:26:58 AM 36.0394 -81.8817 North 437 503 41,000  Level Atlanta Center
Sun 10:27:58 AM 36.1622 -81.8758 North 437 503 41,000  Level Atlanta Center
Sun 10:29:39 AM 36.3597 -81.8669 North 433 498 41,000  Level Indianapolis Center
Sun 10:30:41 AM 36.4803 -81.8608 North 433 498 41,000  Level Indianapolis Center
Sun 10:31:42 AM 36.5994 -81.8550 North 431 496 41,000  Level Indianapolis Center
Sun 10:32:44 AM 36.7194 -81.8592 358° North 428 493 41,000  Level Indianapolis Center
Sun 10:33:45 AM 36.8411 -81.8689 356° North 436 502 41,000  Level Indianapolis Center
Sun 10:34:47 AM 36.9617 -81.8753 358° North 433 498 41,000  Level Indianapolis Center
Sun 10:35:49 AM 37.1056 -81.8872 356° North 442 509 41,000  Level Indianapolis Center
Sun 10:36:50 AM 37.2297 -81.8967 357° North 446 513 41,000  Level Indianapolis Center
Sun 10:37:52 AM 37.3542 -81.9053 357° North 449 517 41,000  Level Indianapolis Center
Sun 10:38:53 AM 37.4794 -81.9147 357° North 450 518 41,000  Level Indianapolis Center
Sun 10:39:55 AM 37.6044 -81.9228 357° North 448 516 41,000  Level Indianapolis Center
Sun 10:40:57 AM 37.7294 -81.9314 357° North 449 517 41,000  Level Indianapolis Center
Sun 10:41:58 AM 37.8678 -81.9414 357° North 448 516 41,000  Level Indianapolis Center
Sun 10:43:00 AM 37.9928 -81.9506 357° North 447 514 41,000 -341 Level Indianapolis Center
Sun 10:44:01 AM 38.1192 -81.9592 357° North 451 519 40,300 -976 Descending Indianapolis Center
Sun 10:45:03 AM 38.2469 -81.9678 357° North 456 525 39,000 -1,268 Descending Indianapolis Center
Sun 10:46:04 AM 38.3742 -81.9764 357° North 454 522 37,700 -1,268 Descending Indianapolis Center
Sun 10:47:06 AM 38.5019 -81.9853 357° North 455 524 36,400 -1,258 Descending Indianapolis Center
Sun 10:48:08 AM 38.6308 -81.9958 356° North 458 527 35,100 -976 Descending Indianapolis Center
Sun 10:49:09 AM 38.7617 -82.0039 357° North 463 533 34,400 -976 Descending Indianapolis Center
Sun 10:50:11 AM 38.8872 -82.0117 357° North 449 517 33,100 -878 Descending Indianapolis Center
Sun 10:51:12 AM 39.0031 -82.0214 356° North 420 483 32,600 -1,073 Descending Indianapolis Center
Sun 10:52:14 AM 39.1464 -82.0325 357° North 427 491 30,900 -1,268 Descending Indianapolis Center
Sun 10:53:15 AM 39.2708 -82.0406 357° North 443 510 30,000 -634 Descending Indianapolis Center
Sun 10:54:17 AM 39.3903 -82.0503 356° North 431 496 29,600 -871 Descending Indianapolis Center
Sun 10:55:19 AM 39.5128 -82.0589 357° North 437 503 28,200 -1,366 Descending Indianapolis Center
Sun 10:56:20 AM 39.6389 -82.0669 357° North 449 517 26,800 -1,512 Descending Indianapolis Center
Sun 10:57:22 AM 39.7694 -82.0772 357° North 451 519 25,100 -1,610 Descending Indianapolis Center
Sun 10:58:23 AM 39.8978 -82.0856 357° North 458 527 23,500 -1,610 Descending Indianapolis Center
Sun 10:59:25 AM 40.0217 -82.0814 North 448 516 21,800 -1,210 Descending Indianapolis Center
Sun 11:00:27 AM 40.1386 -82.0283 19° North 445 512 21,000 -390 Descending Indianapolis Center
Sun 11:01:28 AM 40.2594 -81.9689 21° North 443 510 21,000 -732 Level Indianapolis Center
Sun 11:02:30 AM 40.3778 -81.9144 19° North 445 512 19,500 -1,692 Descending Indianapolis Center
Sun 11:02:46 AM 40.4203 -81.8947 19° North 437 503 18,800 -2,211 Descending Cleveland Center
Sun 11:03:46 AM 40.5333 -81.8425 19° North 437 503 16,700 -2,050 Descending Cleveland Center
Sun 11:04:46 AM 40.6444 -81.7900 20° North 432 497 14,700 -1,892 Descending Cleveland Center
Sun 11:05:37 AM 40.7344 -81.7531 17° North 400 460 13,200 -1,750 Descending Cleveland Center
Sun 11:06:46 AM 40.8539 -81.6947 20° North 400 460 11,200 -1,553 Descending Cleveland Center
Sun 11:07:02 AM 40.8811 -81.6844 16° North 380 437 11,000 -200 Descending Cleveland Center
Sun 11:07:46 AM 40.9461 -81.6525 20° North 376 433 11,000 -173 Level Cleveland Center
Sun 11:08:46 AM 41.0358 -81.6181 16° North 341 392 10,700 -600 Descending Cleveland Center
Sun 11:09:46 AM 41.1092 -81.5917 15° North 320 368 9,800 -1,050 Descending Cleveland Center
Sun 11:10:46 AM 41.1803 -81.5681 14° North 280 322 8,600 -1,200 Descending Cleveland Center
Sun 11:11:46 AM 41.2472 -81.5331 21° North 254 292 7,400 -1,200 Descending Cleveland Center
Sun 11:12:46 AM 41.3186 -81.4761 31° Northeast 260 299 6,200 -1,161 Descending Cleveland Center
Sun 11:13:19 AM 41.3500 -81.4489 33° Northeast 273 314 5,600 -1,000 Descending Cleveland Center
Sun 11:13:46 AM 41.3753 -81.4297 30° Northeast 265 305 5,200 -1,100 Descending Cleveland Center
Sun 11:14:19 AM 41.4194 -81.3889 35° Northeast 273 314 4,500 -1,000 Descending Cleveland Center
Sun 11:14:46 AM 41.4403 -81.3753 26° Northeast 270 311 4,200 -1,082 Descending Cleveland Center
Sun 11:15:20 AM 41.4861 -81.3619 12° North 267 307 3,400 -1,146 Descending Cleveland Center
Sun 11:16:15 AM 41.5444 -81.3961 336° Northwest 238 274 2,500 -716 Descending Cleveland Center
Sun 11:17:09 AM 41.5858 -81.4189 338° Northwest 167 192 2,100 -661 Descending Cleveland Center
Sun 11:18:04 AM 41.5836 -81.4575 266° West 128 147 1,300 -873 Descending Cleveland Center
Sun 11:20:00 AM 41.5651 -81.4864 66° East  Level Estimated

Login

Don't have an account? Register now (free) for customized features, flight alerts, and more!